Station: Dove River (Pws)  

  Atmospheric Gas Attenuation - ITU Rec 676-11   ----------------- dB/100km -----------------
Date Time Temp RH % AH g/m3 Dew Point Wind Direction Speed kph Gust kph Barometer mB Rainfall Since 9am 24GHz 47GHz 76GHz 122GHz 134GHz 241GHz
08/05 12:00 4.7 95 6.33 4 26 37 1013.1 0 15.1 24.7 34.8 91.0 78.3 266.7
08/05 11:30 4.5 97 6.38 4.1 30 41 1013.1 0 15.2 24.9 35.1 91.8 79.1 269.8
08/05 11:00 4 97 6.17 3.6 28 35 1013.1 0 14.8 24.7 34.4 90.1 76.8 261.4
08/05 10:30 4.1 95 6.09 3.4 39 46 1013.1 0 14.6 24.5 34.1 89.1 75.6 257.2
08/05 10:00 3.9 97 6.13 3.4 33 41 1013.1 0 14.7 24.6 34.3 89.7 76.3 259.8
08/05 09:30 4 94 5.98 3.1 52 63 1013.1 0 14.4 24.4 33.7 88.0 74.2 252.2
08/05 09:00 3.7 92 5.74 2.6 63 69 1013.1 19.6 13.9 24.0 32.8 85.7 71.2 241.8
08/05 08:30 3.2 96 5.79 2.6 61 76 1013.1 19.6 14.0 24.3 33.2 86.8 72.3 245.7
08/05 08:00 3.1 93 5.57 2.1 74 85 1013.1 19.6 13.5 23.9 32.3 84.4 69.4 235.5
08/05 07:30 2.9 96 5.67 2.4 70 83 1013.1 19.4 13.7 24.1 32.8 85.8 71.0 240.9
08/05 07:00 2.8 97 5.7 2.4 69 78 1013.1 19.4 13.8 24.2 33.0 86.2 71.5 242.6
08/05 06:30 2.6 95 5.5 1.9 65 72 1013.1 19.2 13.4 23.9 32.3 84.2 68.9 233.7
08/05 06:00 2.8 95 5.58 2.1 69 78 1013.1 19.2 13.6 24.0 32.5 84.9 69.8 236.9
08/05 05:30 2.7 97 5.66 2.3 65 69 1013.1 19.2 13.7 24.2 32.9 85.9 71.0 241.0
08/05 05:00 2.9 99 5.85 2.7 70 82 1013.1 19.2 14.1 24.4 33.6 87.8 73.4 249.5
08/05 04:30 2.7 99 5.77 2.6 70 76 1013.1 19 14.0 24.4 33.3 87.1 72.5 246.3
08/05 04:00 3.1 99 5.93 3 70 83 1013.1 19 14.3 24.5 33.8 88.4 74.3 252.8
08/05 03:30 3.1 99 5.93 3 69 78 1013.1 18.6 14.3 24.5 33.8 88.4 74.3 252.8
08/05 03:00 2.9 100 5.91 2.9 59 65 1013.1 18.4 14.3 24.5 33.8 88.4 74.3 252.4
08/05 02:30 3.2 99 5.97 3.1 69 74 1013.1 18.4 14.4 24.6 34.0 88.8 74.8 254.4
08/05 02:00 3.6 100 6.2 3.6 63 70 1013.1 18.2 14.9 24.8 34.7 90.9 77.6 264.2
08/05 01:30 4.1 100 6.41 4.1 59 69 1013.1 18 15.3 25.0 35.4 92.6 80.0 272.6
08/05 01:00 4.4 100 6.53 4.4 52 61 1013.1 17.6 15.6 25.2 35.8 93.6 81.3 277.4
08/05 00:30 4.4 99 6.47 4.3 63 74 1013.1 15.8 15.4 25.1 35.5 93.0 80.5 274.5
08/05 00:00 4.6 100 6.62 4.6 59 65 1013.1 14.2 15.7 25.3 36.1 94.4 82.4 281.1
07/05 23:30 5.1 100 6.85 5.1 63 78 1013.1 14.2 16.2 25.5 36.8 96.4 85.0 290.4
07/05 23:00 5.4 100 6.98 5.4 50 54 1013.1 13.4 16.5 25.6 37.2 97.5 86.5 295.6
07/05 22:30 5.2 100 6.89 5.2 54 59 1013.1 12.6 16.3 25.5 36.9 96.7 85.5 292.0
07/05 22:00 4.8 100 6.71 4.8 44 48 1013.1 11.6 15.9 25.4 36.3 95.2 83.4 284.7
07/05 21:30 4.6 99 6.56 4.5 46 54 1013.1 9.4 15.6 25.2 35.8 93.7 81.5 278.1
07/05 21:00 4.2 99 6.38 4.1 43 48 1013.1 8.2 15.2 25.0 35.2 92.2 79.5 270.8
07/05 20:30 3.4 100 6.11 3.4 33 41 1013.1 7.6 14.7 24.7 34.5 90.1 76.5 260.5
07/05 20:00 2.7 99 5.77 2.6 35 39 1013.1 6.6 14.0 24.4 33.3 87.1 72.5 246.3
07/05 19:30 2.3 100 5.68 2.3 41 44 1013.1 5.4 13.8 24.3 33.1 86.5 71.7 243.2
07/05 19:00 2 100 5.56 2 50 57 1013.1 4.6 13.5 24.2 32.8 85.5 70.3 238.4
07/05 18:30 1.1 99 5.18 1 52 56 1013.1 3.8 12.8 23.8 31.5 82.3 65.9 222.7
07/05 18:00 0.4 99 4.94 0.3 56 63 1013.1 2 12.3 23.6 30.8 80.4 63.2 213.2
07/05 17:30 0.1 99 4.84 0 46 54 1013.1 0.8 12.0 23.5 30.5 79.6 62.1 209.2
07/05 17:00 0 99 4.8 -0.1 28 39 1013.1 0.8 12.0 23.5 30.4 79.2 61.6 207.5
07/05 16:30 0 99 4.8 -0.2 24 30 1013.1 0.8 12.0 23.5 30.4 79.2 61.6 207.5
07/05 16:00 0 99 4.8 -0.2 26 32 1013.1 0.8 12.0 23.5 30.4 79.2 61.6 207.5
07/05 15:30 0.1 98 4.79 -0.2 19 22 1013.1 0.6 11.9 23.4 30.3 79.0 61.4 206.8
07/05 15:00 0.1 98 4.79 -0.2 26 28 1013.1 0.6 11.9 23.4 30.3 79.0 61.4 206.8
07/05 14:30 0 98 4.75 -0.3 30 33 1013.1 0.4 11.9 23.4 30.2 78.7 60.9 205.1
07/05 14:00 -0.2 97 4.64 -0.6 24 28 1013.1 0.4 11.6 23.3 29.8 77.7 59.6 200.4
07/05 13:30 -0.3 96 4.56 -0.9 30 37 1013.1 0.4 11.5 23.2 29.5 76.9 58.6 196.8
07/05 13:00 -0.3 96 4.56 -0.8 24 30 1013.1 0.4 11.5 23.2 29.5 76.9 58.6 196.8
07/05 12:30 -0.5 96 4.5 -1 28 33 1013.1 0.4 11.3 23.1 29.4 76.4 57.9 194.5
07/05 12:00 -0.6 96 4.47 -1.2 35 39 1013.1 0.4 11.3 23.1 29.3 76.2 57.6 193.3
07/05 11:30 -0.6 95 4.42 -1.3 30 37 1013.1 0.2 11.2 23.0 29.1 75.6 56.9 190.9
07/05 11:00 -0.8 96 4.41 -1.3 32 37 1013.1 0.2 11.1 23.0 29.1 75.7 56.9 190.9
07/05 10:30 -0.4 94 4.44 -1.2 30 33 1013.1 0.2 11.2 23.0 29.1 75.7 57.0 191.4
07/05 10:00 -0.9 95 4.33 -1.6 33 44 1013.1 0 11.0 22.9 28.8 75.0 55.9 187.4
07/05 09:30 -1.2 95 4.24 -1.9 35 43 1013.1 0 10.8 22.9 28.5 74.3 54.9 183.8
07/05 09:00 -1.4 95 4.18 -2.1 39 44 1013.1 9.2 10.7 22.8 28.4 73.8 54.2 181.4
07/05 08:30 -1.6 96 4.17 -2.2 35 43 1013.1 9.2 10.7 22.8 28.4 73.9 54.2 181.4
07/05 08:00 -2 97 4.1 -2.4 43 48 1013.1 9.2 10.5 22.8 28.3 73.5 53.5 179.0
07/05 07:30 -2.2 97 4.04 -2.6 50 56 1013.1 9.2 10.4 22.8 28.1 73.0 52.9 176.6
07/05 07:00 -2.1 97 4.07 -2.5 46 59 1013.1 9.2 10.5 22.8 28.2 73.2 53.2 177.8
07/05 06:30 -2.3 98 4.05 -2.6 56 61 1013.1 9.2 10.4 22.8 28.2 73.2 53.1 177.3
07/05 06:00 -2.1 98 4.11 -2.4 57 65 1013.1 9.2 10.5 22.9 28.3 73.7 53.8 179.7
07/05 05:30 -1.8 98 4.2 -2.1 43 48 1013.1 9.2 10.7 22.9 28.6 74.4 54.8 183.3
07/05 05:00 -1.6 98 4.25 -1.9 48 56 1013.1 9.2 10.8 23.0 28.7 74.7 55.3 185.2
07/05 04:30 -1.6 98 4.25 -1.9 44 46 1013.1 9.2 10.8 23.0 28.7 74.7 55.3 185.2
07/05 04:00 -1.5 99 4.33 -1.7 44 52 1013.1 9.2 11.0 23.1 29.0 75.5 56.3 188.8
07/05 03:30 -1.4 99 4.36 -1.6 57 63 1013.1 9.2 11.1 23.1 29.1 75.8 56.7 190.0
07/05 03:00 -1.4 99 4.36 -1.6 46 56 1013.1 9.2 11.1 23.1 29.1 75.8 56.7 190.0
07/05 02:30 -1.4 99 4.36 -1.6 30 37 1013.1 9 11.1 23.1 29.1 75.8 56.7 190.0
07/05 02:00 -1.1 99 4.45 -1.3 39 46 1013.1 9 11.2 23.2 29.4 76.5 57.7 193.6
07/05 01:30 -1.3 99 4.39 -1.4 37 43 1013.1 9 11.1 23.1 29.2 76.0 57.0 191.2
07/05 01:00 -0.9 99 4.51 -1 35 41 1013.1 9 11.4 23.2 29.5 76.9 58.3 195.9
07/05 00:30 -0.9 99 4.51 -1 32 43 1013.1 9 11.4 23.2 29.5 76.9 58.3 195.9
07/05 00:00 -0.9 99 4.51 -1.1 41 43 1013.1 9 11.4 23.2 29.5 76.9 58.3 195.9
06/05 23:30 -0.8 99 4.54 -0.9 37 39 1013.1 9 11.4 23.2 29.6 77.2 58.7 197.1
06/05 23:00 -0.4 99 4.67 -0.6 35 41 1013.1 9 11.7 23.4 30.0 78.2 60.1 202.3
06/05 22:30 -0.4 99 4.67 -0.6 37 43 1013.1 9 11.7 23.4 30.0 78.2 60.1 202.3
06/05 22:00 -0.1 99 4.77 -0.3 33 37 1013.1 9 11.9 23.4 30.3 79.0 61.3 206.3
06/05 21:30 0.2 99 4.87 0.1 32 37 1013.1 9 12.1 23.5 30.6 79.8 62.4 210.3
06/05 21:00 0.4 99 4.94 0.2 39 44 1013.1 9 12.3 23.6 30.8 80.4 63.2 213.2
06/05 20:30 0.5 99 4.97 0.4 32 35 1013.1 9 12.3 23.6 30.9 80.6 63.5 214.3
06/05 20:00 0.8 99 5.07 0.6 35 43 1013.1 8.6 12.5 23.7 31.2 81.4 64.6 218.3
06/05 19:30 1 99 5.14 0.8 32 43 1013.1 8.4 12.7 23.8 31.4 82.0 65.4 221.1
06/05 19:00 0.9 99 5.11 0.7 39 46 1013.1 8 12.6 23.7 31.3 81.7 65.1 219.9
06/05 18:30 1.8 99 5.43 1.6 48 54 1013.1 7.2 13.3 24.0 32.3 84.3 68.7 232.7
06/05 18:00 2.2 99 5.58 2 32 37 1013.1 6.6 13.6 24.2 32.8 85.5 70.4 238.7
06/05 17:30 1.6 99 5.36 1.4 33 37 1013.1 6.6 13.1 24.0 32.1 83.8 67.9 229.9
06/05 17:00 2.4 99 5.66 2.2 44 48 1013.1 5.4 13.7 24.3 33.0 86.2 71.3 242.0
06/05 16:30 3.5 99 6.09 3.4 43 52 1013.1 4.4 14.6 24.7 34.3 89.8 76.2 259.2
06/05 16:00 5.9 99 7.14 5.8 37 54 1013.1 4.2 16.8 25.8 37.6 98.6 88.1 301.5
06/05 15:30 6.3 99 7.33 6.2 33 46 1013.1 3 17.2 26.0 38.3 100.3 90.3 309.2
06/05 15:00 6.6 98 7.4 6.3 35 43 1013.1 3 17.3 26.0 38.4 100.7 91.0 311.4
06/05 14:30 6.8 99 7.58 6.6 32 37 1013.1 3 17.7 26.3 39.1 102.5 93.2 319.4
06/05 14:00 6.9 98 7.55 6.6 33 37 1013.1 3 17.7 26.2 38.9 102.0 92.7 317.5
06/05 13:30 7 99 7.67 6.9 33 39 1013.1 3 17.9 26.3 39.4 103.2 94.2 323.0
06/05 13:00 7.2 99 7.78 7.1 30 43 1013.1 2.6 18.1 26.5 39.7 104.2 95.5 327.6
06/05 12:30 7.6 99 7.98 7.4 37 44 1013.1 2 18.6 26.7 40.4 105.9 97.8 335.7
06/05 12:00 7.7 99 8.03 7.6 37 44 1013.1 2 18.7 26.8 40.5 106.4 98.4 337.7
06/05 11:30 8.2 99 8.29 8 26 32 1013.1 1.8 19.2 27.0 41.4 108.6 101.4 348.3
06/05 11:00 7.7 99 8.03 7.6 33 41 1013.1 1.6 18.7 26.8 40.5 106.4 98.4 337.7
06/05 09:30 7.2 100 7.85 7.2 32 37 1013.1 0.4 18.3 26.6 40.0 105.0 96.5 331.0

Last Refresh: 08-May-2026 12:07:20

Bureau of Meteorology